createdAt,value
2022-12-14T00:01:25.534Z,56.67
2022-12-14T00:03:53.107Z,56.53
2022-12-14T00:06:27.788Z,56.75
2022-12-14T00:08:57.438Z,56.42
2022-12-14T00:11:24.793Z,57.10
2022-12-14T00:13:54.352Z,56.69
2022-12-14T00:16:22.195Z,56.79
2022-12-14T00:18:54.104Z,56.82
2022-12-14T00:21:21.777Z,56.58
2022-12-14T00:23:50.372Z,56.94
2022-12-14T00:26:25.069Z,57.06
2022-12-14T00:28:54.377Z,57.00
2022-12-14T00:31:22.020Z,56.75
2022-12-14T00:33:49.290Z,56.64
2022-12-14T00:36:16.257Z,56.77
2022-12-14T00:38:43.437Z,56.69
2022-12-14T00:41:11.373Z,56.90
2022-12-14T00:43:38.647Z,57.14
2022-12-14T00:46:06.215Z,57.08
2022-12-14T00:48:33.855Z,57.04
2022-12-14T00:51:00.903Z,56.53
2022-12-14T00:53:28.568Z,57.21
2022-12-14T00:55:55.542Z,56.89
2022-12-14T00:58:25.358Z,57.24
2022-12-14T01:01:04.643Z,57.25
2022-12-14T01:03:32.520Z,57.18
2022-12-14T01:06:00.175Z,56.93
2022-12-14T01:08:35.534Z,57.08
2022-12-14T01:11:09.807Z,57.42
2022-12-14T01:13:38.749Z,56.99
2022-12-14T01:16:08.341Z,56.99
2022-12-14T01:18:36.803Z,57.42
2022-12-14T01:21:22.686Z,57.27
2022-12-14T01:23:52.276Z,57.14
2022-12-14T01:26:20.664Z,57.52
2022-12-14T01:28:52.891Z,56.97
2022-12-14T01:31:23.822Z,57.42
2022-12-14T01:33:51.141Z,57.39
2022-12-14T01:36:24.579Z,57.40
2022-12-14T01:38:58.550Z,57.33
2022-12-14T01:41:38.892Z,57.80
2022-12-14T01:44:09.523Z,57.61
2022-12-14T01:46:43.919Z,57.08
2022-12-14T01:49:19.737Z,57.33
2022-12-14T01:52:01.432Z,57.45
2022-12-14T01:54:35.461Z,57.35
2022-12-14T01:57:02.881Z,57.12
2022-12-14T01:59:45.987Z,57.13
2022-12-14T02:02:15.405Z,57.21
2022-12-14T02:04:53.946Z,57.34
2022-12-14T02:07:25.144Z,57.06
2022-12-14T02:10:01.309Z,56.91
2022-12-14T02:12:34.450Z,57.02
2022-12-14T02:15:03.873Z,57.00
2022-12-14T02:17:34.083Z,57.17
2022-12-14T02:20:04.623Z,57.12
2022-12-14T02:22:53.000Z,57.17
2022-12-14T02:25:26.404Z,56.90
2022-12-14T02:28:09.254Z,56.72
2022-12-14T02:30:41.129Z,57.00
2022-12-14T02:33:34.851Z,56.40
2022-12-14T02:36:07.964Z,57.03
2022-12-14T02:38:40.419Z,56.58
2022-12-14T02:41:38.676Z,56.24
2022-12-14T02:44:30.638Z,56.48
2022-12-14T02:47:06.662Z,56.78
2022-12-14T02:49:49.329Z,56.14
2022-12-14T02:52:32.009Z,56.38
2022-12-14T02:55:16.988Z,56.21
2022-12-14T02:58:16.367Z,56.52
2022-12-14T03:00:44.159Z,55.87
2022-12-14T03:03:11.443Z,56.03
2022-12-14T03:08:47.779Z,55.90
2022-12-14T03:11:21.129Z,55.89
2022-12-14T03:13:59.291Z,55.80
2022-12-14T03:16:50.749Z,56.37
2022-12-14T03:19:31.487Z,56.60
2022-12-14T03:22:06.513Z,56.42
2022-12-14T03:24:41.555Z,56.42
2022-12-14T03:27:16.797Z,56.53
2022-12-14T03:30:43.763Z,56.14
2022-12-14T03:33:13.991Z,56.67
2022-12-14T03:36:00.508Z,56.89
2022-12-14T03:38:42.873Z,56.35
2022-12-14T03:41:29.675Z,56.61
2022-12-14T03:44:25.707Z,56.79
2022-12-14T03:47:04.744Z,56.82
2022-12-14T03:49:45.644Z,56.59
2022-12-14T03:52:22.422Z,56.63
2022-12-14T03:55:19.394Z,57.31
2022-12-14T03:57:57.977Z,57.02
2022-12-14T04:00:28.838Z,56.69
2022-12-14T04:03:27.400Z,57.13
2022-12-14T04:06:05.055Z,57.31
2022-12-14T04:08:47.028Z,56.74
2022-12-14T04:11:35.503Z,57.05
2022-12-14T04:14:32.477Z,57.25
2022-12-14T04:17:22.538Z,57.52
2022-12-14T04:19:57.398Z,57.29
2022-12-14T04:22:29.362Z,57.44
2022-12-14T04:25:21.640Z,57.34
2022-12-14T04:28:34.983Z,57.22
2022-12-14T04:31:07.406Z,57.61
2022-12-14T04:33:48.398Z,57.20
2022-12-14T04:36:32.186Z,57.15
2022-12-14T04:39:03.820Z,57.40
2022-12-14T04:41:36.747Z,57.70
2022-12-14T04:44:15.889Z,57.57
2022-12-14T04:46:44.332Z,57.33
2022-12-14T04:49:35.105Z,57.61
2022-12-14T04:52:27.494Z,57.11
2022-12-14T04:55:05.035Z,56.78
2022-12-14T04:57:36.724Z,57.13
2022-12-14T05:00:05.681Z,56.97
2022-12-14T05:02:51.456Z,57.09
2022-12-14T05:05:25.062Z,57.46
2022-12-14T05:08:39.259Z,57.08
2022-12-14T05:14:22.096Z,56.74
2022-12-14T05:16:50.284Z,56.73
2022-12-14T05:19:17.132Z,56.13
2022-12-14T05:21:49.699Z,56.62
2022-12-14T05:24:17.165Z,56.82
2022-12-14T05:26:44.382Z,56.61
2022-12-14T05:29:11.282Z,56.69
2022-12-14T05:31:38.088Z,56.70
2022-12-14T05:34:04.754Z,56.65
2022-12-14T05:36:31.262Z,56.48
2022-12-14T05:38:57.692Z,56.79
2022-12-14T05:41:24.259Z,56.98
2022-12-14T05:43:50.866Z,57.02
2022-12-14T05:46:18.752Z,56.90
2022-12-14T05:48:49.218Z,55.96
2022-12-14T05:51:16.451Z,56.66
2022-12-14T05:53:43.151Z,56.29
2022-12-14T05:56:10.434Z,55.91
2022-12-14T05:58:38.293Z,56.10
2022-12-14T06:01:07.035Z,56.07
2022-12-14T06:03:33.877Z,56.71
2022-12-14T06:06:05.424Z,56.83
2022-12-14T06:08:40.419Z,56.94
2022-12-14T06:11:13.272Z,56.13
2022-12-14T06:13:40.924Z,56.53
2022-12-14T06:16:28.353Z,56.24
2022-12-14T06:18:57.832Z,56.33
2022-12-14T06:21:27.734Z,56.33
2022-12-14T06:24:05.409Z,56.35
2022-12-14T06:26:41.898Z,56.01
2022-12-14T06:29:13.796Z,56.77
2022-12-14T06:31:40.229Z,56.26
2022-12-14T06:34:06.720Z,55.94
2022-12-14T06:36:38.673Z,56.64
2022-12-14T06:39:16.985Z,56.04
2022-12-14T06:41:43.887Z,56.48
2022-12-14T06:44:14.523Z,56.67
2022-12-14T06:46:42.827Z,56.57
2022-12-14T06:49:13.956Z,56.27
2022-12-14T06:51:41.127Z,56.65
2022-12-14T06:54:09.427Z,56.36
2022-12-14T06:56:37.000Z,56.22
2022-12-14T06:59:05.288Z,56.51
2022-12-14T07:01:31.940Z,56.37
2022-12-14T07:03:59.486Z,56.17
2022-12-14T07:06:28.363Z,56.59
2022-12-14T07:08:56.628Z,56.32
2022-12-14T07:11:23.568Z,55.93
2022-12-14T07:13:50.084Z,55.94
2022-12-14T07:16:19.104Z,56.01
2022-12-14T07:18:45.614Z,55.98
2022-12-14T07:21:14.413Z,56.09
2022-12-14T07:23:42.690Z,55.96
2022-12-14T07:26:14.759Z,56.03
2022-12-14T07:28:42.606Z,55.96
2022-12-14T07:31:27.847Z,56.33
2022-12-14T07:33:56.238Z,56.09
2022-12-14T07:36:24.381Z,56.08
2022-12-14T07:38:51.821Z,56.33
2022-12-14T07:41:23.082Z,56.18
2022-12-14T07:43:51.517Z,56.20
2022-12-14T07:46:21.386Z,56.20
2022-12-14T07:48:58.936Z,56.06
2022-12-14T07:51:28.660Z,56.24
2022-12-14T07:53:55.636Z,56.35
2022-12-14T07:56:36.038Z,56.46
2022-12-14T07:59:05.025Z,56.55
2022-12-14T08:01:33.905Z,56.21
2022-12-14T08:04:06.093Z,56.36
2022-12-14T08:06:33.187Z,56.63
2022-12-14T08:09:00.828Z,56.26
2022-12-14T08:11:27.867Z,56.24
2022-12-14T08:13:56.362Z,56.48
2022-12-14T08:16:23.638Z,56.07
2022-12-14T08:18:52.306Z,55.75
2022-12-14T08:21:25.913Z,55.91
2022-12-14T08:24:02.023Z,56.17
2022-12-14T08:26:34.930Z,56.02
2022-12-14T08:29:02.193Z,56.24
2022-12-14T08:31:28.925Z,55.83
2022-12-14T08:33:55.714Z,56.60
2022-12-14T08:36:28.046Z,56.06
2022-12-14T08:38:56.530Z,55.99
2022-12-14T08:41:23.951Z,56.38
2022-12-14T08:43:51.638Z,55.75
2022-12-14T08:46:18.854Z,56.30
2022-12-14T08:48:45.437Z,55.81
2022-12-14T08:51:11.826Z,55.96
2022-12-14T08:53:38.879Z,56.13
2022-12-14T08:56:12.589Z,56.51
2022-12-14T08:58:40.770Z,56.17
2022-12-14T09:01:32.301Z,55.87
2022-12-14T09:04:16.893Z,55.91
2022-12-14T09:06:43.239Z,56.00
2022-12-14T09:09:16.506Z,55.51
2022-12-14T09:11:44.644Z,55.95
2022-12-14T09:14:11.028Z,55.50
2022-12-14T09:16:37.534Z,55.95
2022-12-14T09:19:03.977Z,55.97
2022-12-14T09:21:31.510Z,56.06
2022-12-14T09:23:59.859Z,56.03
2022-12-14T09:26:27.055Z,55.65
2022-12-14T09:28:55.772Z,55.99
2022-12-14T09:31:24.297Z,55.83
2022-12-14T09:33:51.342Z,55.69
2022-12-14T09:36:20.498Z,56.35
2022-12-14T09:38:51.497Z,56.47
2022-12-14T09:41:46.609Z,56.23
2022-12-14T09:44:43.392Z,56.40
2022-12-14T09:47:36.242Z,56.15
2022-12-14T09:50:11.210Z,56.39
2022-12-14T09:52:45.512Z,56.21
2022-12-14T09:55:36.066Z,56.79
2022-12-14T09:58:20.415Z,56.76
2022-12-14T10:01:02.489Z,56.48
2022-12-14T10:03:53.396Z,56.15
2022-12-14T10:06:25.686Z,56.27
2022-12-14T10:09:12.041Z,56.25
2022-12-14T10:11:52.920Z,56.10
2022-12-14T10:14:44.540Z,56.23
2022-12-14T10:17:34.898Z,55.89
2022-12-14T10:20:23.836Z,55.43
2022-12-14T10:22:52.621Z,55.28
2022-12-14T10:25:24.241Z,55.28
2022-12-14T10:28:10.916Z,54.58
2022-12-14T10:30:37.815Z,54.97
2022-12-14T10:33:26.526Z,54.42
2022-12-14T10:35:55.325Z,54.54
2022-12-14T10:38:31.408Z,54.25
2022-12-14T10:41:21.786Z,53.60
2022-12-14T10:43:59.533Z,53.81
2022-12-14T10:46:45.318Z,53.40
2022-12-14T10:49:23.957Z,53.43
2022-12-14T10:51:58.632Z,53.72
2022-12-14T10:54:38.957Z,53.19
2022-12-14T10:57:05.727Z,53.42
2022-12-14T10:59:40.761Z,53.17
2022-12-14T11:02:27.883Z,53.14
2022-12-14T11:05:00.461Z,53.02
2022-12-14T11:07:33.146Z,52.97
2022-12-14T11:10:23.628Z,52.55
2022-12-14T11:13:06.906Z,52.31
2022-12-14T11:15:40.183Z,52.56
2022-12-14T11:18:15.797Z,52.19
2022-12-14T11:21:04.388Z,52.13
2022-12-14T11:23:37.771Z,52.05
2022-12-14T11:26:08.921Z,51.84
2022-12-14T11:28:37.978Z,51.75
2022-12-14T11:31:28.769Z,51.67
2022-12-14T11:33:57.991Z,51.48
2022-12-14T11:36:32.946Z,51.54
2022-12-14T11:39:02.397Z,51.41
2022-12-14T11:41:40.421Z,51.34
2022-12-14T11:44:15.818Z,51.61
2022-12-14T11:47:11.381Z,51.47
2022-12-14T11:49:37.624Z,51.38
2022-12-14T11:52:13.051Z,51.44
2022-12-14T11:54:42.309Z,51.81
2022-12-14T11:57:38.641Z,51.68
2022-12-14T12:00:21.586Z,51.47
2022-12-14T12:02:54.347Z,51.38
2022-12-14T12:05:23.468Z,51.63
2022-12-14T12:07:49.721Z,51.59
2022-12-14T12:10:37.231Z,51.81
2022-12-14T12:13:18.532Z,51.31
2022-12-14T12:15:55.396Z,51.33
2022-12-14T12:18:40.335Z,51.27
2022-12-14T12:21:32.038Z,51.24
2022-12-14T12:24:22.180Z,51.21
2022-12-14T12:27:11.693Z,51.24
2022-12-14T12:29:52.397Z,51.09
2022-12-14T12:32:23.445Z,51.05
2022-12-14T12:34:56.760Z,51.33
2022-12-14T12:37:31.347Z,51.20
2022-12-14T12:40:03.420Z,51.20
2022-12-14T12:42:43.653Z,50.94
2022-12-14T12:45:32.449Z,51.41
2022-12-14T12:48:18.576Z,51.05
2022-12-14T12:50:49.608Z,51.64
2022-12-14T12:53:21.307Z,51.21
2022-12-14T12:55:52.099Z,51.50
2022-12-14T12:58:31.696Z,51.21
2022-12-14T13:01:02.347Z,51.20
2022-12-14T13:03:45.689Z,51.00
2022-12-14T13:06:30.486Z,50.92
2022-12-14T13:09:17.484Z,50.78
2022-12-14T13:11:44.051Z,50.72
2022-12-14T13:14:31.741Z,51.05
2022-12-14T13:17:00.879Z,51.05
2022-12-14T13:19:52.666Z,49.97
2022-12-14T13:22:30.500Z,50.57
2022-12-14T13:25:02.943Z,50.53
2022-12-14T13:27:40.512Z,50.59
2022-12-14T13:30:20.881Z,50.44
2022-12-14T13:32:47.125Z,50.84
2022-12-14T13:35:32.384Z,50.59
2022-12-14T13:38:21.813Z,50.66
2022-12-14T13:41:08.197Z,50.36
2022-12-14T13:44:02.325Z,50.44
2022-12-14T13:46:30.218Z,50.19
2022-12-14T13:49:04.726Z,50.62
2022-12-14T13:51:45.987Z,50.63
2022-12-14T13:54:27.580Z,50.49
2022-12-14T13:57:13.166Z,50.92
2022-12-14T13:59:45.354Z,50.88
2022-12-14T14:02:30.637Z,50.81
2022-12-14T14:05:15.451Z,50.81
2022-12-14T14:07:50.531Z,51.12
2022-12-14T14:10:34.970Z,51.07
2022-12-14T14:13:27.008Z,51.18
2022-12-14T14:16:27.465Z,51.10
2022-12-14T14:19:04.604Z,51.40
2022-12-14T14:22:25.231Z,51.37
2022-12-14T14:25:02.533Z,51.52
2022-12-14T14:27:36.415Z,51.15
2022-12-14T14:30:22.831Z,51.68
2022-12-14T14:32:49.292Z,51.54
2022-12-14T14:35:30.183Z,51.34
2022-12-14T14:37:59.992Z,51.61
2022-12-14T14:41:06.384Z,51.41
2022-12-14T14:43:38.043Z,51.12
2022-12-14T14:46:07.723Z,51.39
2022-12-14T14:48:42.096Z,51.10
2022-12-14T14:51:20.518Z,51.86
2022-12-14T14:53:50.527Z,51.51
2022-12-14T14:56:29.634Z,51.72
2022-12-14T14:59:22.818Z,51.82
2022-12-14T15:02:01.366Z,51.33
2022-12-14T15:04:37.461Z,51.63
2022-12-14T15:07:08.338Z,51.56
2022-12-14T15:09:44.274Z,51.90
2022-12-14T15:12:32.852Z,51.84
2022-12-14T15:15:17.029Z,51.64
2022-12-14T15:17:43.660Z,51.92
2022-12-14T15:20:27.254Z,51.69
2022-12-14T15:22:58.299Z,51.90
2022-12-14T15:25:29.508Z,51.88
2022-12-14T15:28:05.335Z,52.05
2022-12-14T15:30:32.232Z,52.04
2022-12-14T15:33:01.281Z,51.81
2022-12-14T15:35:31.711Z,52.00
2022-12-14T15:38:02.532Z,51.82
2022-12-14T15:40:30.968Z,52.01
2022-12-14T15:43:00.784Z,52.38
2022-12-14T15:45:28.701Z,52.75
2022-12-14T15:47:55.038Z,52.38
2022-12-14T15:50:28.176Z,52.72
2022-12-14T15:52:58.941Z,52.72
2022-12-14T15:56:00.247Z,52.84
2022-12-14T15:58:34.058Z,52.68
2022-12-14T16:01:23.439Z,52.70
2022-12-14T16:03:54.678Z,52.66
2022-12-14T16:06:23.969Z,53.18
2022-12-14T16:09:03.623Z,52.89
2022-12-14T16:11:38.861Z,53.21
2022-12-14T16:14:20.126Z,53.85
2022-12-14T16:16:47.553Z,53.63
2022-12-14T16:19:28.309Z,53.56
2022-12-14T16:22:20.679Z,53.42
2022-12-14T16:24:58.895Z,53.69
2022-12-14T16:27:27.800Z,53.98
2022-12-14T16:30:19.681Z,53.78
2022-12-14T16:32:50.062Z,53.86
2022-12-14T16:35:23.399Z,54.18
2022-12-14T16:37:53.440Z,53.85
2022-12-14T16:40:32.015Z,53.98
2022-12-14T16:42:58.630Z,53.95
2022-12-14T16:46:00.319Z,54.16
2022-12-14T16:48:28.686Z,54.36
2022-12-14T16:51:44.382Z,54.35
2022-12-14T16:54:33.159Z,54.24
2022-12-14T16:57:01.231Z,54.26
2022-12-14T16:59:40.789Z,54.64
2022-12-14T17:02:26.614Z,54.94
2022-12-14T17:04:53.792Z,54.35
2022-12-14T17:07:24.669Z,54.46
2022-12-14T17:09:51.067Z,54.86
2022-12-14T17:12:18.380Z,55.16
2022-12-14T17:14:49.804Z,54.96
2022-12-14T17:17:21.936Z,54.63
2022-12-14T17:19:48.988Z,55.00
2022-12-14T17:22:24.577Z,55.19
2022-12-14T17:24:51.101Z,55.19
2022-12-14T17:27:20.840Z,55.39
2022-12-14T17:29:47.156Z,54.97
2022-12-14T17:32:15.465Z,55.09
2022-12-14T17:34:42.563Z,55.14
2022-12-14T17:37:18.492Z,54.93
2022-12-14T17:39:46.587Z,55.12
2022-12-14T17:42:15.424Z,54.82
2022-12-14T17:44:43.962Z,54.54
2022-12-14T17:47:14.128Z,54.91
2022-12-14T17:49:42.146Z,55.33
2022-12-14T17:52:21.101Z,55.13
2022-12-14T17:54:47.684Z,55.47
2022-12-14T17:57:20.196Z,54.94
2022-12-14T17:59:47.748Z,55.83
2022-12-14T18:02:34.880Z,55.37
2022-12-14T18:05:01.535Z,55.23
2022-12-14T18:07:27.921Z,55.52
2022-12-14T18:09:54.396Z,55.45
2022-12-14T18:12:23.905Z,55.69
2022-12-14T18:14:50.992Z,55.82
2022-12-14T18:17:18.610Z,55.65
2022-12-14T18:19:44.993Z,55.64
2022-12-14T18:22:14.668Z,55.98
2022-12-14T18:24:41.070Z,56.07
2022-12-14T18:27:07.497Z,55.86
2022-12-14T18:29:33.978Z,56.05
2022-12-14T18:32:00.470Z,56.24
2022-12-14T18:34:26.903Z,56.06
2022-12-14T18:36:53.591Z,56.59
2022-12-14T18:39:19.940Z,55.79
2022-12-14T18:41:46.340Z,56.79
2022-12-14T18:44:12.985Z,55.74
2022-12-14T18:46:39.625Z,56.07
2022-12-14T18:49:06.070Z,56.39
2022-12-14T18:51:32.502Z,56.17
2022-12-14T18:54:00.182Z,56.27
2022-12-14T18:56:28.002Z,56.28
2022-12-14T18:58:54.674Z,56.75
2022-12-14T19:01:23.787Z,56.55
2022-12-14T19:03:51.196Z,56.36
2022-12-14T19:06:43.707Z,56.48
2022-12-14T19:09:07.122Z,56.39
2022-12-14T19:11:38.688Z,56.44
2022-12-14T19:14:05.095Z,56.28
2022-12-14T19:16:31.674Z,57.04
2022-12-14T19:18:58.386Z,56.55
2022-12-14T19:21:29.297Z,56.51
2022-12-14T19:23:56.011Z,56.91
2022-12-14T19:26:22.643Z,56.64
2022-12-14T19:28:48.991Z,55.91
2022-12-14T19:31:15.407Z,56.29
2022-12-14T19:33:41.792Z,56.45
2022-12-14T19:36:09.190Z,56.80
2022-12-14T19:38:36.069Z,56.57
2022-12-14T19:41:06.458Z,56.94
2022-12-14T19:43:33.554Z,56.67
2022-12-14T19:46:00.230Z,57.11
2022-12-14T19:48:26.625Z,56.57
2022-12-14T19:50:53.128Z,57.00
2022-12-14T19:53:27.990Z,56.69
2022-12-14T19:55:54.610Z,57.08
2022-12-14T19:58:25.190Z,57.38
2022-12-14T20:00:51.723Z,57.73
2022-12-14T20:03:18.582Z,57.28
2022-12-14T20:05:51.503Z,57.37
2022-12-14T20:08:17.898Z,56.51
2022-12-14T20:10:44.391Z,57.23
2022-12-14T20:13:10.701Z,57.48
2022-12-14T20:15:37.067Z,56.83
2022-12-14T20:18:04.670Z,57.14
2022-12-14T20:20:32.002Z,56.97
2022-12-14T20:22:58.377Z,56.71
2022-12-14T20:25:24.856Z,57.03
2022-12-14T20:27:52.119Z,57.28
2022-12-14T20:30:18.604Z,56.91
2022-12-14T20:32:44.961Z,57.56
2022-12-14T20:35:18.518Z,57.53
2022-12-14T20:37:46.045Z,57.63
2022-12-14T20:40:13.547Z,57.59
2022-12-14T20:42:40.083Z,57.26
2022-12-14T20:45:07.526Z,57.56
2022-12-14T20:47:34.310Z,57.16
2022-12-14T20:50:00.701Z,56.90
2022-12-14T20:52:27.022Z,57.51
2022-12-14T20:54:53.605Z,57.14
2022-12-14T20:57:20.111Z,57.87
2022-12-14T20:59:46.425Z,57.56
2022-12-14T21:02:17.151Z,57.69
2022-12-14T21:04:43.626Z,57.49
2022-12-14T21:07:10.171Z,57.36
2022-12-14T21:09:36.493Z,57.33
2022-12-14T21:12:22.012Z,57.50
2022-12-14T21:14:54.159Z,57.75
2022-12-14T21:17:22.747Z,58.29
2022-12-14T21:19:49.420Z,57.72
2022-12-14T21:22:18.993Z,57.57
2022-12-14T21:25:03.071Z,57.87
2022-12-14T21:27:31.006Z,58.12
2022-12-14T21:29:57.481Z,58.28
2022-12-14T21:32:24.116Z,57.88
2022-12-14T21:34:50.755Z,57.84
2022-12-14T21:37:17.716Z,57.77
2022-12-14T21:39:51.830Z,58.34
2022-12-14T21:42:20.749Z,58.32
2022-12-14T21:44:49.357Z,58.20
2022-12-14T21:47:17.019Z,58.70
2022-12-14T21:49:45.162Z,58.03
2022-12-14T21:52:14.423Z,58.43
2022-12-14T21:54:41.335Z,58.39
2022-12-14T21:57:26.514Z,58.65
2022-12-14T21:59:52.814Z,58.40
2022-12-14T22:02:22.834Z,58.91
2022-12-14T22:04:50.059Z,58.84
2022-12-14T22:07:18.253Z,58.29
2022-12-14T22:09:49.735Z,58.51
2022-12-14T22:12:17.728Z,58.68
2022-12-14T22:14:44.104Z,58.63
2022-12-14T22:17:13.096Z,58.43
2022-12-14T22:19:39.489Z,58.72
2022-12-14T22:22:06.129Z,58.42
2022-12-14T22:24:32.767Z,58.88
2022-12-14T22:26:59.396Z,58.80
2022-12-14T22:29:25.891Z,58.66
2022-12-14T22:31:52.569Z,58.46
2022-12-14T22:34:21.442Z,59.05
2022-12-14T22:36:49.474Z,59.04
2022-12-14T22:39:17.430Z,58.40
2022-12-14T22:41:44.083Z,58.84
2022-12-14T22:44:12.577Z,58.67
2022-12-14T22:46:40.119Z,58.24
2022-12-14T22:49:06.953Z,58.57
2022-12-14T22:51:33.306Z,58.34
2022-12-14T22:53:59.713Z,58.73
2022-12-14T22:56:46.297Z,58.46
2022-12-14T22:59:17.779Z,58.64
2022-12-14T23:01:49.725Z,58.65
2022-12-14T23:04:17.351Z,58.19
2022-12-14T23:06:43.801Z,58.70
2022-12-14T23:09:28.710Z,58.89
2022-12-14T23:12:15.065Z,58.52
2022-12-14T23:15:03.407Z,58.42
2022-12-14T23:17:48.924Z,58.27
2022-12-14T23:20:34.145Z,58.96
2022-12-14T23:23:18.838Z,59.04
2022-12-14T23:26:03.626Z,58.34
2022-12-14T23:28:51.078Z,58.96
2022-12-14T23:31:35.925Z,58.97
2022-12-14T23:34:20.682Z,59.41
2022-12-14T23:37:05.303Z,58.85
2022-12-14T23:39:50.084Z,59.61
2022-12-14T23:42:34.951Z,59.26
2022-12-14T23:45:19.735Z,59.51
2022-12-14T23:48:04.426Z,59.81
2022-12-14T23:50:49.314Z,59.80
2022-12-14T23:53:34.294Z,59.59
2022-12-14T23:56:19.468Z,59.28
2022-12-14T23:59:04.902Z,59.64
